sensor_id;sensor_type;location;lat;lon;timestamp;P1;durP1;ratioP1;P2;durP2;ratioP2
76131;SDS011;64877;50.994;13.650;2023-06-19T00:01:46;8.95;;;5.80;;
76131;SDS011;64877;50.994;13.650;2023-06-19T00:04:11;7.40;;;5.45;;
76131;SDS011;64877;50.994;13.650;2023-06-19T00:06:36;7.97;;;6.00;;
76131;SDS011;64877;50.994;13.650;2023-06-19T00:09:02;6.78;;;5.38;;
76131;SDS011;64877;50.994;13.650;2023-06-19T00:11:28;7.93;;;6.20;;
76131;SDS011;64877;50.994;13.650;2023-06-19T00:13:54;9.13;;;5.93;;
76131;SDS011;64877;50.994;13.650;2023-06-19T00:16:19;8.57;;;5.45;;
76131;SDS011;64877;50.994;13.650;2023-06-19T00:18:45;8.40;;;5.55;;
76131;SDS011;64877;50.994;13.650;2023-06-19T00:21:11;9.50;;;6.20;;
76131;SDS011;64877;50.994;13.650;2023-06-19T00:23:36;8.25;;;5.32;;
76131;SDS011;64877;50.994;13.650;2023-06-19T00:26:02;7.70;;;5.70;;
76131;SDS011;64877;50.994;13.650;2023-06-19T00:28:28;8.73;;;6.18;;
76131;SDS011;64877;50.994;13.650;2023-06-19T00:30:54;8.43;;;6.07;;
76131;SDS011;64877;50.994;13.650;2023-06-19T00:33:19;8.95;;;6.05;;
76131;SDS011;64877;50.994;13.650;2023-06-19T00:35:44;8.52;;;6.03;;
76131;SDS011;64877;50.994;13.650;2023-06-19T00:38:10;8.55;;;6.28;;
76131;SDS011;64877;50.994;13.650;2023-06-19T00:40:35;8.45;;;6.25;;
76131;SDS011;64877;50.994;13.650;2023-06-19T00:43:01;8.90;;;6.30;;
76131;SDS011;64877;50.994;13.650;2023-06-19T00:45:27;7.70;;;5.97;;
76131;SDS011;64877;50.994;13.650;2023-06-19T00:47:54;6.97;;;5.47;;
76131;SDS011;64877;50.994;13.650;2023-06-19T00:50:23;9.45;;;6.47;;
76131;SDS011;64877;50.994;13.650;2023-06-19T00:52:49;7.72;;;6.05;;
76131;SDS011;64877;50.994;13.650;2023-06-19T00:55:15;8.85;;;6.22;;
76131;SDS011;64877;50.994;13.650;2023-06-19T00:57:42;9.13;;;6.47;;
76131;SDS011;64877;50.994;13.650;2023-06-19T01:00:08;9.00;;;6.10;;
76131;SDS011;64877;50.994;13.650;2023-06-19T01:02:37;8.05;;;6.22;;
76131;SDS011;64877;50.994;13.650;2023-06-19T01:05:03;9.02;;;6.28;;
76131;SDS011;64877;50.994;13.650;2023-06-19T01:07:36;8.10;;;6.47;;
76131;SDS011;64877;50.994;13.650;2023-06-19T01:10:10;8.85;;;6.20;;
76131;SDS011;64877;50.994;13.650;2023-06-19T01:12:40;11.60;;;6.18;;
76131;SDS011;64877;50.994;13.650;2023-06-19T01:15:13;8.07;;;5.80;;
76131;SDS011;64877;50.994;13.650;2023-06-19T01:17:39;8.20;;;5.95;;
76131;SDS011;64877;50.994;13.650;2023-06-19T01:20:05;8.75;;;5.95;;
76131;SDS011;64877;50.994;13.650;2023-06-19T01:22:36;9.77;;;6.43;;
76131;SDS011;64877;50.994;13.650;2023-06-19T01:25:02;7.75;;;5.93;;
76131;SDS011;64877;50.994;13.650;2023-06-19T01:29:55;9.93;;;7.13;;
76131;SDS011;64877;50.994;13.650;2023-06-19T01:33:09;9.30;;;6.38;;
76131;SDS011;64877;50.994;13.650;2023-06-19T01:35:19;9.73;;;6.93;;
76131;SDS011;64877;50.994;13.650;2023-06-19T01:37:48;11.77;;;6.95;;
76131;SDS011;64877;50.994;13.650;2023-06-19T01:40:16;9.80;;;6.57;;
76131;SDS011;64877;50.994;13.650;2023-06-19T01:42:42;9.23;;;6.68;;
76131;SDS011;64877;50.994;13.650;2023-06-19T01:45:08;8.73;;;6.53;;
76131;SDS011;64877;50.994;13.650;2023-06-19T01:47:34;13.38;;;6.88;;
76131;SDS011;64877;50.994;13.650;2023-06-19T01:50:00;10.30;;;6.57;;
76131;SDS011;64877;50.994;13.650;2023-06-19T01:52:25;7.18;;;5.78;;
76131;SDS011;64877;50.994;13.650;2023-06-19T01:54:51;8.30;;;6.55;;
76131;SDS011;64877;50.994;13.650;2023-06-19T01:57:17;8.70;;;6.32;;
76131;SDS011;64877;50.994;13.650;2023-06-19T01:59:43;7.80;;;5.78;;
76131;SDS011;64877;50.994;13.650;2023-06-19T02:02:08;8.77;;;6.13;;
76131;SDS011;64877;50.994;13.650;2023-06-19T02:04:34;9.02;;;6.43;;
76131;SDS011;64877;50.994;13.650;2023-06-19T02:06:59;7.45;;;5.82;;
76131;SDS011;64877;50.994;13.650;2023-06-19T02:09:25;9.13;;;5.95;;
76131;SDS011;64877;50.994;13.650;2023-06-19T02:11:50;9.45;;;6.50;;
76131;SDS011;64877;50.994;13.650;2023-06-19T02:14:16;9.90;;;6.97;;
76131;SDS011;64877;50.994;13.650;2023-06-19T02:16:41;8.45;;;6.82;;
76131;SDS011;64877;50.994;13.650;2023-06-19T02:19:09;9.02;;;6.55;;
76131;SDS011;64877;50.994;13.650;2023-06-19T02:24:01;9.35;;;6.22;;
76131;SDS011;64877;50.994;13.650;2023-06-19T02:26:26;7.32;;;6.05;;
76131;SDS011;64877;50.994;13.650;2023-06-19T02:28:54;10.55;;;6.32;;
76131;SDS011;64877;50.994;13.650;2023-06-19T02:31:20;8.43;;;6.60;;
76131;SDS011;64877;50.994;13.650;2023-06-19T02:33:47;11.93;;;6.65;;
76131;SDS011;64877;50.994;13.650;2023-06-19T02:36:12;9.10;;;6.32;;
76131;SDS011;64877;50.994;13.650;2023-06-19T02:38:38;7.97;;;6.13;;
76131;SDS011;64877;50.994;13.650;2023-06-19T02:41:03;7.63;;;6.30;;
76131;SDS011;64877;50.994;13.650;2023-06-19T02:43:29;10.43;;;7.40;;
76131;SDS011;64877;50.994;13.650;2023-06-19T02:45:54;8.50;;;6.75;;
76131;SDS011;64877;50.994;13.650;2023-06-19T02:48:20;7.82;;;6.03;;
76131;SDS011;64877;50.994;13.650;2023-06-19T02:53:12;7.27;;;5.87;;
76131;SDS011;64877;50.994;13.650;2023-06-19T02:55:38;8.02;;;6.32;;
76131;SDS011;64877;50.994;13.650;2023-06-19T02:58:03;9.05;;;6.70;;
76131;SDS011;64877;50.994;13.650;2023-06-19T03:00:28;9.18;;;6.35;;
76131;SDS011;64877;50.994;13.650;2023-06-19T03:02:54;9.63;;;6.70;;
76131;SDS011;64877;50.994;13.650;2023-06-19T03:05:19;9.68;;;6.55;;
76131;SDS011;64877;50.994;13.650;2023-06-19T03:07:45;9.07;;;6.63;;
76131;SDS011;64877;50.994;13.650;2023-06-19T03:10:10;7.75;;;6.03;;
76131;SDS011;64877;50.994;13.650;2023-06-19T03:12:36;8.90;;;5.93;;
76131;SDS011;64877;50.994;13.650;2023-06-19T03:15:01;10.52;;;6.10;;
76131;SDS011;64877;50.994;13.650;2023-06-19T03:17:27;12.63;;;7.18;;
76131;SDS011;64877;50.994;13.650;2023-06-19T03:19:52;10.18;;;6.85;;
76131;SDS011;64877;50.994;13.650;2023-06-19T03:22:19;8.98;;;6.25;;
76131;SDS011;64877;50.994;13.650;2023-06-19T03:24:45;9.98;;;7.13;;
76131;SDS011;64877;50.994;13.650;2023-06-19T03:27:10;10.70;;;6.85;;
76131;SDS011;64877;50.994;13.650;2023-06-19T03:29:35;8.48;;;6.75;;
76131;SDS011;64877;50.994;13.650;2023-06-19T03:32:01;9.27;;;6.80;;
76131;SDS011;64877;50.994;13.650;2023-06-19T03:34:26;9.02;;;6.97;;
76131;SDS011;64877;50.994;13.650;2023-06-19T03:36:51;9.15;;;6.90;;
76131;SDS011;64877;50.994;13.650;2023-06-19T03:39:17;9.32;;;6.28;;
76131;SDS011;64877;50.994;13.650;2023-06-19T03:41:42;9.70;;;6.45;;
76131;SDS011;64877;50.994;13.650;2023-06-19T03:44:08;9.93;;;7.03;;
76131;SDS011;64877;50.994;13.650;2023-06-19T03:46:33;12.27;;;7.78;;
76131;SDS011;64877;50.994;13.650;2023-06-19T03:48:58;10.48;;;6.70;;
76131;SDS011;64877;50.994;13.650;2023-06-19T03:51:24;11.63;;;7.00;;
76131;SDS011;64877;50.994;13.650;2023-06-19T03:53:49;8.50;;;6.70;;
76131;SDS011;64877;50.994;13.650;2023-06-19T03:56:15;10.35;;;7.10;;
76131;SDS011;64877;50.994;13.650;2023-06-19T03:58:40;8.73;;;7.15;;
76131;SDS011;64877;50.994;13.650;2023-06-19T04:01:05;11.80;;;7.00;;
76131;SDS011;64877;50.994;13.650;2023-06-19T04:03:31;11.38;;;6.75;;
76131;SDS011;64877;50.994;13.650;2023-06-19T04:05:56;10.98;;;6.97;;
76131;SDS011;64877;50.994;13.650;2023-06-19T04:08:22;9.88;;;7.00;;
76131;SDS011;64877;50.994;13.650;2023-06-19T04:10:47;8.05;;;6.72;;
76131;SDS011;64877;50.994;13.650;2023-06-19T04:13:12;9.68;;;7.10;;
76131;SDS011;64877;50.994;13.650;2023-06-19T04:15:38;11.75;;;7.45;;
76131;SDS011;64877;50.994;13.650;2023-06-19T04:18:03;9.88;;;7.18;;
76131;SDS011;64877;50.994;13.650;2023-06-19T04:20:29;14.32;;;7.72;;
76131;SDS011;64877;50.994;13.650;2023-06-19T04:22:54;8.85;;;7.70;;
76131;SDS011;64877;50.994;13.650;2023-06-19T04:25:19;10.02;;;6.60;;
76131;SDS011;64877;50.994;13.650;2023-06-19T04:27:45;14.75;;;7.38;;
76131;SDS011;64877;50.994;13.650;2023-06-19T04:30:10;9.00;;;7.72;;
76131;SDS011;64877;50.994;13.650;2023-06-19T04:32:36;9.73;;;6.97;;
76131;SDS011;64877;50.994;13.650;2023-06-19T04:35:06;9.45;;;6.70;;
76131;SDS011;64877;50.994;13.650;2023-06-19T04:37:32;11.73;;;7.30;;
76131;SDS011;64877;50.994;13.650;2023-06-19T04:39:57;9.25;;;7.07;;
76131;SDS011;64877;50.994;13.650;2023-06-19T04:42:23;10.55;;;8.07;;
76131;SDS011;64877;50.994;13.650;2023-06-19T04:44:48;10.30;;;7.60;;
76131;SDS011;64877;50.994;13.650;2023-06-19T04:47:16;10.63;;;7.15;;
76131;SDS011;64877;50.994;13.650;2023-06-19T04:49:42;9.57;;;6.25;;
76131;SDS011;64877;50.994;13.650;2023-06-19T04:52:08;8.88;;;7.07;;
76131;SDS011;64877;50.994;13.650;2023-06-19T04:54:33;9.57;;;6.70;;
76131;SDS011;64877;50.994;13.650;2023-06-19T04:56:59;9.98;;;7.10;;
76131;SDS011;64877;50.994;13.650;2023-06-19T04:59:24;9.73;;;6.68;;
76131;SDS011;64877;50.994;13.650;2023-06-19T05:01:50;9.50;;;6.90;;
76131;SDS011;64877;50.994;13.650;2023-06-19T05:04:18;10.15;;;6.95;;
76131;SDS011;64877;50.994;13.650;2023-06-19T05:06:44;10.85;;;7.30;;
76131;SDS011;64877;50.994;13.650;2023-06-19T05:09:10;12.10;;;7.30;;
76131;SDS011;64877;50.994;13.650;2023-06-19T05:11:35;13.73;;;7.22;;
76131;SDS011;64877;50.994;13.650;2023-06-19T05:14:01;9.88;;;7.10;;
76131;SDS011;64877;50.994;13.650;2023-06-19T05:16:26;11.23;;;7.22;;
76131;SDS011;64877;50.994;13.650;2023-06-19T05:18:52;10.07;;;7.75;;
76131;SDS011;64877;50.994;13.650;2023-06-19T05:21:17;9.25;;;6.45;;
76131;SDS011;64877;50.994;13.650;2023-06-19T05:23:43;8.60;;;6.28;;
76131;SDS011;64877;50.994;13.650;2023-06-19T05:26:08;11.05;;;6.93;;
76131;SDS011;64877;50.994;13.650;2023-06-19T05:28:33;11.75;;;7.20;;
76131;SDS011;64877;50.994;13.650;2023-06-19T05:30:59;11.55;;;8.27;;
76131;SDS011;64877;50.994;13.650;2023-06-19T05:33:24;10.80;;;7.78;;
76131;SDS011;64877;50.994;13.650;2023-06-19T05:35:50;10.73;;;7.63;;
76131;SDS011;64877;50.994;13.650;2023-06-19T05:38:19;11.10;;;7.25;;
76131;SDS011;64877;50.994;13.650;2023-06-19T05:40:45;9.63;;;7.80;;
76131;SDS011;64877;50.994;13.650;2023-06-19T05:43:10;11.90;;;8.50;;
76131;SDS011;64877;50.994;13.650;2023-06-19T05:45:36;11.25;;;7.85;;
76131;SDS011;64877;50.994;13.650;2023-06-19T05:48:01;9.85;;;7.85;;
76131;SDS011;64877;50.994;13.650;2023-06-19T05:50:27;12.32;;;8.43;;
76131;SDS011;64877;50.994;13.650;2023-06-19T05:52:52;11.88;;;8.35;;
76131;SDS011;64877;50.994;13.650;2023-06-19T05:55:17;11.45;;;8.20;;
76131;SDS011;64877;50.994;13.650;2023-06-19T05:57:43;9.95;;;7.63;;
76131;SDS011;64877;50.994;13.650;2023-06-19T06:00:08;11.45;;;8.70;;
76131;SDS011;64877;50.994;13.650;2023-06-19T06:02:39;11.52;;;8.73;;
76131;SDS011;64877;50.994;13.650;2023-06-19T06:05:06;10.73;;;7.93;;
76131;SDS011;64877;50.994;13.650;2023-06-19T06:07:33;11.68;;;7.97;;
76131;SDS011;64877;50.994;13.650;2023-06-19T06:09:59;11.90;;;8.77;;
76131;SDS011;64877;50.994;13.650;2023-06-19T06:12:24;15.82;;;7.75;;
76131;SDS011;64877;50.994;13.650;2023-06-19T06:14:49;13.82;;;8.02;;
76131;SDS011;64877;50.994;13.650;2023-06-19T06:17:15;13.82;;;8.13;;
76131;SDS011;64877;50.994;13.650;2023-06-19T06:19:40;9.88;;;7.68;;
76131;SDS011;64877;50.994;13.650;2023-06-19T06:22:06;10.35;;;7.75;;
76131;SDS011;64877;50.994;13.650;2023-06-19T06:24:32;10.60;;;8.13;;
76131;SDS011;64877;50.994;13.650;2023-06-19T06:26:57;9.13;;;7.35;;
76131;SDS011;64877;50.994;13.650;2023-06-19T06:29:23;11.50;;;7.72;;
76131;SDS011;64877;50.994;13.650;2023-06-19T06:31:49;11.88;;;7.97;;
76131;SDS011;64877;50.994;13.650;2023-06-19T06:34:17;9.00;;;6.90;;
76131;SDS011;64877;50.994;13.650;2023-06-19T06:36:44;9.85;;;7.25;;
76131;SDS011;64877;50.994;13.650;2023-06-19T06:39:09;9.07;;;7.65;;
76131;SDS011;64877;50.994;13.650;2023-06-19T06:41:35;9.80;;;7.38;;
76131;SDS011;64877;50.994;13.650;2023-06-19T06:44:01;11.25;;;7.70;;
76131;SDS011;64877;50.994;13.650;2023-06-19T06:46:26;9.73;;;7.47;;
76131;SDS011;64877;50.994;13.650;2023-06-19T06:48:53;13.05;;;7.80;;
76131;SDS011;64877;50.994;13.650;2023-06-19T06:51:18;10.65;;;8.27;;
76131;SDS011;64877;50.994;13.650;2023-06-19T06:53:43;11.00;;;7.25;;
76131;SDS011;64877;50.994;13.650;2023-06-19T06:56:09;14.57;;;7.80;;
76131;SDS011;64877;50.994;13.650;2023-06-19T06:58:35;11.23;;;6.95;;
76131;SDS011;64877;50.994;13.650;2023-06-19T07:01:01;10.43;;;7.47;;
76131;SDS011;64877;50.994;13.650;2023-06-19T07:03:27;9.75;;;7.75;;
76131;SDS011;64877;50.994;13.650;2023-06-19T07:05:55;11.07;;;7.70;;
76131;SDS011;64877;50.994;13.650;2023-06-19T07:08:20;12.57;;;7.63;;
76131;SDS011;64877;50.994;13.650;2023-06-19T07:10:45;10.80;;;8.52;;
76131;SDS011;64877;50.994;13.650;2023-06-19T07:13:11;12.18;;;8.57;;
76131;SDS011;64877;50.994;13.650;2023-06-19T07:15:36;11.10;;;7.65;;
76131;SDS011;64877;50.994;13.650;2023-06-19T07:18:02;14.07;;;8.02;;
76131;SDS011;64877;50.994;13.650;2023-06-19T07:20:27;11.00;;;7.63;;
76131;SDS011;64877;50.994;13.650;2023-06-19T07:22:52;10.93;;;7.80;;
76131;SDS011;64877;50.994;13.650;2023-06-19T07:25:19;10.00;;;6.95;;
76131;SDS011;64877;50.994;13.650;2023-06-19T07:27:44;11.18;;;7.18;;
76131;SDS011;64877;50.994;13.650;2023-06-19T07:30:10;11.75;;;8.40;;
76131;SDS011;64877;50.994;13.650;2023-06-19T07:32:36;11.73;;;7.70;;
76131;SDS011;64877;50.994;13.650;2023-06-19T07:35:02;10.70;;;7.47;;
76131;SDS011;64877;50.994;13.650;2023-06-19T07:37:27;11.05;;;7.50;;
76131;SDS011;64877;50.994;13.650;2023-06-19T07:39:53;10.38;;;7.05;;
76131;SDS011;64877;50.994;13.650;2023-06-19T07:42:19;10.35;;;7.50;;
76131;SDS011;64877;50.994;13.650;2023-06-19T07:44:45;15.27;;;6.57;;
76131;SDS011;64877;50.994;13.650;2023-06-19T07:47:10;17.17;;;7.95;;
76131;SDS011;64877;50.994;13.650;2023-06-19T07:49:36;15.60;;;7.10;;
76131;SDS011;64877;50.994;13.650;2023-06-19T07:52:03;10.52;;;6.60;;
76131;SDS011;64877;50.994;13.650;2023-06-19T07:54:29;9.98;;;6.72;;
76131;SDS011;64877;50.994;13.650;2023-06-19T07:56:54;10.00;;;7.68;;
76131;SDS011;64877;50.994;13.650;2023-06-19T07:59:20;11.85;;;6.72;;
76131;SDS011;64877;50.994;13.650;2023-06-19T08:01:45;10.98;;;6.93;;
76131;SDS011;64877;50.994;13.650;2023-06-19T08:04:11;15.05;;;7.60;;
76131;SDS011;64877;50.994;13.650;2023-06-19T08:06:36;17.67;;;8.00;;
76131;SDS011;64877;50.994;13.650;2023-06-19T08:09:02;14.30;;;7.25;;
76131;SDS011;64877;50.994;13.650;2023-06-19T08:11:28;9.80;;;6.47;;
76131;SDS011;64877;50.994;13.650;2023-06-19T08:13:53;9.82;;;7.93;;
76131;SDS011;64877;50.994;13.650;2023-06-19T08:16:19;12.10;;;6.60;;
76131;SDS011;64877;50.994;13.650;2023-06-19T08:18:45;10.02;;;6.90;;
76131;SDS011;64877;50.994;13.650;2023-06-19T08:21:11;13.75;;;7.80;;
76131;SDS011;64877;50.994;13.650;2023-06-19T08:23:37;10.35;;;6.70;;
76131;SDS011;64877;50.994;13.650;2023-06-19T08:26:04;15.98;;;7.30;;
76131;SDS011;64877;50.994;13.650;2023-06-19T08:28:31;14.20;;;7.20;;
76131;SDS011;64877;50.994;13.650;2023-06-19T08:30:57;11.07;;;7.35;;
76131;SDS011;64877;50.994;13.650;2023-06-19T08:33:22;9.55;;;6.82;;
76131;SDS011;64877;50.994;13.650;2023-06-19T08:35:48;15.27;;;7.00;;
76131;SDS011;64877;50.994;13.650;2023-06-19T08:38:13;13.23;;;6.88;;
76131;SDS011;64877;50.994;13.650;2023-06-19T08:40:40;10.05;;;6.90;;
76131;SDS011;64877;50.994;13.650;2023-06-19T08:43:07;12.65;;;7.07;;
76131;SDS011;64877;50.994;13.650;2023-06-19T08:45:33;10.75;;;7.43;;
76131;SDS011;64877;50.994;13.650;2023-06-19T08:47:59;9.93;;;6.47;;
76131;SDS011;64877;50.994;13.650;2023-06-19T08:50:33;8.52;;;6.65;;
76131;SDS011;64877;50.994;13.650;2023-06-19T08:52:59;9.93;;;6.15;;
76131;SDS011;64877;50.994;13.650;2023-06-19T08:55:24;13.43;;;7.43;;
76131;SDS011;64877;50.994;13.650;2023-06-19T08:57:50;12.70;;;6.43;;
76131;SDS011;64877;50.994;13.650;2023-06-19T09:02:50;13.60;;;6.45;;
76131;SDS011;64877;50.994;13.650;2023-06-19T09:05:17;13.80;;;6.97;;
76131;SDS011;64877;50.994;13.650;2023-06-19T09:07:44;9.15;;;5.88;;
76131;SDS011;64877;50.994;13.650;2023-06-19T09:10:19;12.07;;;7.80;;
76131;SDS011;64877;50.994;13.650;2023-06-19T09:12:57;12.65;;;6.70;;
76131;SDS011;64877;50.994;13.650;2023-06-19T09:15:28;11.65;;;7.03;;
76131;SDS011;64877;50.994;13.650;2023-06-19T09:18:08;11.10;;;6.60;;
76131;SDS011;64877;50.994;13.650;2023-06-19T09:20:37;10.00;;;7.10;;
76131;SDS011;64877;50.994;13.650;2023-06-19T09:23:05;9.73;;;7.10;;
76131;SDS011;64877;50.994;13.650;2023-06-19T09:25:30;9.43;;;7.22;;
76131;SDS011;64877;50.994;13.650;2023-06-19T09:27:56;10.43;;;7.00;;
76131;SDS011;64877;50.994;13.650;2023-06-19T09:30:22;15.82;;;7.57;;
76131;SDS011;64877;50.994;13.650;2023-06-19T09:32:48;9.70;;;6.88;;
76131;SDS011;64877;50.994;13.650;2023-06-19T09:35:13;11.20;;;7.05;;
76131;SDS011;64877;50.994;13.650;2023-06-19T09:37:39;10.30;;;7.55;;
76131;SDS011;64877;50.994;13.650;2023-06-19T09:40:07;10.20;;;7.00;;
76131;SDS011;64877;50.994;13.650;2023-06-19T09:42:42;10.23;;;6.88;;
76131;SDS011;64877;50.994;13.650;2023-06-19T09:45:09;12.75;;;7.47;;
76131;SDS011;64877;50.994;13.650;2023-06-19T09:47:37;10.43;;;7.53;;
76131;SDS011;64877;50.994;13.650;2023-06-19T09:50:04;10.85;;;6.60;;
76131;SDS011;64877;50.994;13.650;2023-06-19T09:54:57;9.65;;;6.13;;
76131;SDS011;64877;50.994;13.650;2023-06-19T09:57:25;13.88;;;7.18;;
76131;SDS011;64877;50.994;13.650;2023-06-19T09:59:54;11.38;;;7.10;;
76131;SDS011;64877;50.994;13.650;2023-06-19T10:02:21;11.95;;;7.43;;
76131;SDS011;64877;50.994;13.650;2023-06-19T10:04:54;11.38;;;7.10;;
76131;SDS011;64877;50.994;13.650;2023-06-19T10:07:22;8.20;;;6.72;;
76131;SDS011;64877;50.994;13.650;2023-06-19T10:09:59;9.43;;;6.85;;
76131;SDS011;64877;50.994;13.650;2023-06-19T10:17:44;7.35;;;5.90;;
76131;SDS011;64877;50.994;13.650;2023-06-19T10:20:23;10.30;;;5.80;;
76131;SDS011;64877;50.994;13.650;2023-06-19T10:22:57;9.32;;;6.43;;
76131;SDS011;64877;50.994;13.650;2023-06-19T10:25:23;8.68;;;5.55;;
76131;SDS011;64877;50.994;13.650;2023-06-19T10:27:49;6.93;;;4.97;;
76131;SDS011;64877;50.994;13.650;2023-06-19T10:30:18;9.32;;;5.47;;
76131;SDS011;64877;50.994;13.650;2023-06-19T10:32:45;12.57;;;6.40;;
76131;SDS011;64877;50.994;13.650;2023-06-19T10:35:11;10.95;;;6.28;;
76131;SDS011;64877;50.994;13.650;2023-06-19T10:37:37;10.45;;;5.63;;
76131;SDS011;64877;50.994;13.650;2023-06-19T10:40:03;7.72;;;5.05;;
76131;SDS011;64877;50.994;13.650;2023-06-19T10:42:33;8.13;;;5.20;;
76131;SDS011;64877;50.994;13.650;2023-06-19T10:45:01;6.93;;;5.28;;
76131;SDS011;64877;50.994;13.650;2023-06-19T10:47:27;6.90;;;5.28;;
76131;SDS011;64877;50.994;13.650;2023-06-19T10:49:54;10.48;;;6.00;;
76131;SDS011;64877;50.994;13.650;2023-06-19T10:52:19;8.02;;;5.28;;
76131;SDS011;64877;50.994;13.650;2023-06-19T10:54:45;7.55;;;5.00;;
76131;SDS011;64877;50.994;13.650;2023-06-19T10:57:10;7.47;;;5.20;;
76131;SDS011;64877;50.994;13.650;2023-06-19T10:59:38;7.50;;;4.85;;
76131;SDS011;64877;50.994;13.650;2023-06-19T11:02:05;7.03;;;4.90;;
76131;SDS011;64877;50.994;13.650;2023-06-19T11:04:30;8.13;;;4.93;;
76131;SDS011;64877;50.994;13.650;2023-06-19T11:06:56;9.73;;;4.63;;
76131;SDS011;64877;50.994;13.650;2023-06-19T11:09:21;6.72;;;4.65;;
76131;SDS011;64877;50.994;13.650;2023-06-19T11:11:47;8.57;;;4.50;;
76131;SDS011;64877;50.994;13.650;2023-06-19T11:14:14;7.32;;;4.65;;
76131;SDS011;64877;50.994;13.650;2023-06-19T11:16:41;9.18;;;4.50;;
76131;SDS011;64877;50.994;13.650;2023-06-19T11:19:15;6.07;;;4.50;;
76131;SDS011;64877;50.994;13.650;2023-06-19T11:21:45;6.65;;;4.25;;
76131;SDS011;64877;50.994;13.650;2023-06-19T11:24:12;5.82;;;4.45;;
76131;SDS011;64877;50.994;13.650;2023-06-19T11:26:46;5.57;;;3.92;;
76131;SDS011;64877;50.994;13.650;2023-06-19T11:29:16;6.25;;;4.57;;
76131;SDS011;64877;50.994;13.650;2023-06-19T11:31:45;6.43;;;4.75;;
76131;SDS011;64877;50.994;13.650;2023-06-19T11:34:12;7.70;;;4.43;;
76131;SDS011;64877;50.994;13.650;2023-06-19T11:36:39;6.80;;;4.70;;
76131;SDS011;64877;50.994;13.650;2023-06-19T11:39:09;6.70;;;4.93;;
76131;SDS011;64877;50.994;13.650;2023-06-19T11:41:36;6.82;;;4.40;;
76131;SDS011;64877;50.994;13.650;2023-06-19T11:44:05;7.68;;;4.88;;
76131;SDS011;64877;50.994;13.650;2023-06-19T11:46:33;8.18;;;4.85;;
76131;SDS011;64877;50.994;13.650;2023-06-19T11:49:11;8.32;;;5.03;;
76131;SDS011;64877;50.994;13.650;2023-06-19T11:51:38;6.50;;;4.82;;
76131;SDS011;64877;50.994;13.650;2023-06-19T11:54:05;7.30;;;4.57;;
76131;SDS011;64877;50.994;13.650;2023-06-19T11:56:32;5.55;;;4.50;;
76131;SDS011;64877;50.994;13.650;2023-06-19T11:58:57;7.35;;;4.28;;
76131;SDS011;64877;50.994;13.650;2023-06-19T12:01:23;12.15;;;4.63;;
76131;SDS011;64877;50.994;13.650;2023-06-19T12:03:48;7.60;;;4.88;;
76131;SDS011;64877;50.994;13.650;2023-06-19T12:06:14;6.32;;;4.38;;
76131;SDS011;64877;50.994;13.650;2023-06-19T12:08:41;5.75;;;4.40;;
76131;SDS011;64877;50.994;13.650;2023-06-19T12:11:06;7.65;;;4.60;;
76131;SDS011;64877;50.994;13.650;2023-06-19T12:13:34;7.13;;;4.35;;
76131;SDS011;64877;50.994;13.650;2023-06-19T12:15:59;6.13;;;3.97;;
76131;SDS011;64877;50.994;13.650;2023-06-19T12:18:25;5.15;;;4.25;;
76131;SDS011;64877;50.994;13.650;2023-06-19T12:20:50;9.80;;;4.28;;
76131;SDS011;64877;50.994;13.650;2023-06-19T12:23:15;8.85;;;4.75;;
76131;SDS011;64877;50.994;13.650;2023-06-19T12:25:41;9.18;;;4.35;;
76131;SDS011;64877;50.994;13.650;2023-06-19T12:28:06;5.82;;;4.93;;
76131;SDS011;64877;50.994;13.650;2023-06-19T12:30:33;5.68;;;4.30;;
76131;SDS011;64877;50.994;13.650;2023-06-19T12:33:01;5.60;;;4.35;;
76131;SDS011;64877;50.994;13.650;2023-06-19T12:35:29;6.47;;;4.30;;
76131;SDS011;64877;50.994;13.650;2023-06-19T12:37:54;7.18;;;4.85;;
76131;SDS011;64877;50.994;13.650;2023-06-19T12:40:20;7.55;;;4.43;;
76131;SDS011;64877;50.994;13.650;2023-06-19T12:42:45;6.97;;;4.60;;
76131;SDS011;64877;50.994;13.650;2023-06-19T12:45:11;6.07;;;4.53;;
76131;SDS011;64877;50.994;13.650;2023-06-19T12:47:37;7.45;;;4.97;;
76131;SDS011;64877;50.994;13.650;2023-06-19T12:50:03;5.68;;;3.97;;
76131;SDS011;64877;50.994;13.650;2023-06-19T12:52:29;8.23;;;4.70;;
76131;SDS011;64877;50.994;13.650;2023-06-19T12:54:55;10.90;;;4.80;;
76131;SDS011;64877;50.994;13.650;2023-06-19T12:57:21;6.88;;;4.13;;
76131;SDS011;64877;50.994;13.650;2023-06-19T12:59:46;6.90;;;4.72;;
76131;SDS011;64877;50.994;13.650;2023-06-19T13:02:12;6.35;;;4.57;;
76131;SDS011;64877;50.994;13.650;2023-06-19T13:04:37;5.82;;;4.70;;
76131;SDS011;64877;50.994;13.650;2023-06-19T13:07:03;7.80;;;4.40;;
76131;SDS011;64877;50.994;13.650;2023-06-19T13:09:28;5.30;;;4.30;;
76131;SDS011;64877;50.994;13.650;2023-06-19T13:11:54;6.35;;;4.22;;
76131;SDS011;64877;50.994;13.650;2023-06-19T13:14:20;7.78;;;4.38;;
76131;SDS011;64877;50.994;13.650;2023-06-19T13:16:45;5.53;;;4.50;;
76131;SDS011;64877;50.994;13.650;2023-06-19T13:19:11;6.55;;;4.18;;
76131;SDS011;64877;50.994;13.650;2023-06-19T13:21:36;8.60;;;5.13;;
76131;SDS011;64877;50.994;13.650;2023-06-19T13:24:02;6.63;;;4.30;;
76131;SDS011;64877;50.994;13.650;2023-06-19T13:26:27;7.28;;;4.95;;
76131;SDS011;64877;50.994;13.650;2023-06-19T13:28:52;6.65;;;4.93;;
76131;SDS011;64877;50.994;13.650;2023-06-19T13:31:18;8.25;;;4.80;;
76131;SDS011;64877;50.994;13.650;2023-06-19T13:33:43;8.07;;;5.30;;
76131;SDS011;64877;50.994;13.650;2023-06-19T13:36:09;8.35;;;5.43;;
76131;SDS011;64877;50.994;13.650;2023-06-19T13:38:34;7.05;;;4.75;;
76131;SDS011;64877;50.994;13.650;2023-06-19T13:40:59;6.82;;;5.13;;
76131;SDS011;64877;50.994;13.650;2023-06-19T13:43:25;6.03;;;5.07;;
76131;SDS011;64877;50.994;13.650;2023-06-19T13:45:50;7.15;;;5.20;;
76131;SDS011;64877;50.994;13.650;2023-06-19T13:48:16;7.13;;;5.28;;
76131;SDS011;64877;50.994;13.650;2023-06-19T13:50:41;7.18;;;5.68;;
76131;SDS011;64877;50.994;13.650;2023-06-19T13:53:06;7.45;;;5.30;;
76131;SDS011;64877;50.994;13.650;2023-06-19T13:55:32;9.63;;;5.40;;
76131;SDS011;64877;50.994;13.650;2023-06-19T13:57:57;7.07;;;5.30;;
76131;SDS011;64877;50.994;13.650;2023-06-19T14:00:23;5.38;;;4.75;;
76131;SDS011;64877;50.994;13.650;2023-06-19T14:02:48;9.80;;;5.10;;
76131;SDS011;64877;50.994;13.650;2023-06-19T14:05:14;9.52;;;5.90;;
76131;SDS011;64877;50.994;13.650;2023-06-19T14:07:41;11.25;;;5.35;;
76131;SDS011;64877;50.994;13.650;2023-06-19T14:10:07;6.40;;;5.00;;
76131;SDS011;64877;50.994;13.650;2023-06-19T14:12:33;13.57;;;5.72;;
76131;SDS011;64877;50.994;13.650;2023-06-19T14:14:59;11.93;;;6.05;;
76131;SDS011;64877;50.994;13.650;2023-06-19T14:17:24;7.53;;;5.75;;
76131;SDS011;64877;50.994;13.650;2023-06-19T14:19:50;8.27;;;6.32;;
76131;SDS011;64877;50.994;13.650;2023-06-19T14:22:20;7.20;;;6.07;;
76131;SDS011;64877;50.994;13.650;2023-06-19T14:24:46;8.13;;;6.10;;
76131;SDS011;64877;50.994;13.650;2023-06-19T14:27:11;7.70;;;6.20;;
76131;SDS011;64877;50.994;13.650;2023-06-19T14:29:37;7.35;;;6.40;;
76131;SDS011;64877;50.994;13.650;2023-06-19T14:32:02;8.70;;;6.22;;
76131;SDS011;64877;50.994;13.650;2023-06-19T14:34:28;7.30;;;6.20;;
76131;SDS011;64877;50.994;13.650;2023-06-19T14:36:54;7.70;;;6.13;;
76131;SDS011;64877;50.994;13.650;2023-06-19T14:39:19;8.40;;;6.43;;
76131;SDS011;64877;50.994;13.650;2023-06-19T14:41:44;8.80;;;6.38;;
76131;SDS011;64877;50.994;13.650;2023-06-19T14:44:10;8.50;;;5.78;;